Time;durP1;ratioP1;P1;durP2;ratioP2;P2;SDS_P1;SDS_P2;PMS_P1;PMS_P2;Temp;Humidity;BMP_temperature;BMP_pressure;BME280_temperature;BME280_humidity;BME280_pressure;Samples;Min_cycle;Max_cycle;Signal;HPM_P1;HPM_P2
2023/10/11 00:01:18;;;;;;;;;11.33;9.33;;;;;19.00;100.00;101334.28;5028302;28;45426;-73
2023/10/11 00:03:52;;;;;;;;;16.00;11.67;;;;;19.00;100.00;101334.28;5018275;28;45685;-72
2023/10/11 00:06:17;;;;;;;;;10.00;9.67;;;;;18.99;100.00;101336.22;5005560;28;47225;-73
2023/10/11 00:08:43;;;;;;;;;10.00;9.67;;;;;18.99;100.00;101338.16;5014834;28;45563;-74
2023/10/11 00:11:09;;;;;;;;;13.67;10.67;;;;;19.00;100.00;101342.63;5016171;28;45379;-73
2023/10/11 00:13:36;;;;;;;;;16.33;11.67;;;;;18.97;100.00;101338.41;5015712;28;45511;-74
2023/10/11 00:16:08;;;;;;;;;19.00;14.33;;;;;18.97;100.00;101343.13;5016414;28;45436;-74
2023/10/11 00:18:39;;;;;;;;;15.67;14.00;;;;;18.94;100.00;101333.34;5015366;28;45397;-73
2023/10/11 00:21:12;;;;;;;;;17.00;14.33;;;;;18.86;100.00;101337.38;5016931;28;45618;-74
2023/10/11 00:23:43;;;;;;;;;15.67;13.67;;;;;18.91;100.00;101338.56;5014913;28;45739;-74
2023/10/11 00:26:09;;;;;;;;;21.67;17.33;;;;;18.88;100.00;101342.69;5015162;28;45766;-74
2023/10/11 00:28:37;;;;;;;;;20.00;15.67;;;;;18.83;100.00;101337.84;5015204;28;45747;-71
2023/10/11 00:31:04;;;;;;;;;20.00;17.33;;;;;18.82;100.00;101341.72;5016769;28;45697;-72
2023/10/11 00:33:31;;;;;;;;;17.33;13.67;;;;;18.74;100.00;101332.94;5016007;28;45778;-72
2023/10/11 00:36:00;;;;;;;;;18.67;15.00;;;;;18.63;100.00;101326.34;5015498;28;47305;-72
2023/10/11 00:38:29;;;;;;;;;19.00;14.33;;;;;18.72;100.00;101335.97;5011210;28;45865;-73
2023/10/11 00:41:12;;;;;;;;;26.33;16.67;;;;;18.67;100.00;101345.06;5019979;28;45409;-73
2023/10/11 00:43:39;;;;;;;;;20.67;20.00;;;;;18.65;100.00;101340.84;5028033;28;45513;-72
2023/10/11 00:46:09;;;;;;;;;18.00;15.67;;;;;18.61;100.00;101342.44;5030744;28;45402;-73
2023/10/11 00:48:51;;;;;;;;;17.00;14.67;;;;;18.57;100.00;101338.47;5027389;28;45353;-72
2023/10/11 00:51:23;;;;;;;;;20.00;15.50;;;;;18.53;100.00;101332.53;5025072;28;45889;-72
2023/10/11 00:53:49;;;;;;;;;19.67;18.67;;;;;18.41;100.00;101312.31;5020710;28;47349;-73
2023/10/11 00:56:16;;;;;;;;;18.00;14.67;;;;;18.50;100.00;101328.34;5018210;28;45527;-74
2023/10/11 00:58:43;;;;;;;;;21.33;16.67;;;;;18.46;100.00;101329.94;5020715;28;45539;-73
2023/10/11 01:01:08;;;;;;;;;20.67;16.33;;;;;18.45;100.00;101325.44;5025156;28;45477;-73
2023/10/11 01:03:37;;;;;;;;;17.00;16.00;;;;;18.44;100.00;101323.78;5015695;28;45896;-73
2023/10/11 01:06:04;;;;;;;;;14.33;11.33;;;;;18.44;100.00;101322.94;5012610;28;48412;-74
2023/10/11 01:08:38;;;;;;;;;14.00;12.33;;;;;18.45;100.00;101325.44;5012214;28;45345;-73
2023/10/11 01:11:11;;;;;;;;;20.33;15.00;;;;;18.43;100.00;101315.69;5008976;28;45621;-72
2023/10/11 01:13:41;;;;;;;;;18.00;15.67;;;;;18.38;100.00;101313.63;5013281;28;45375;-74
2023/10/11 01:16:09;;;;;;;;;17.00;14.00;;;;;18.28;100.00;101303.19;5009780;28;45325;-73
2023/10/11 01:18:36;;;;;;;;;13.67;10.67;;;;;18.34;100.00;101309.69;5019918;28;45675;-73
2023/10/11 01:21:03;;;;;;;;;16.00;12.67;;;;;18.32;100.00;101312.72;5034200;28;45400;-74
2023/10/11 01:23:29;;;;;;;;;15.67;10.67;;;;;18.28;100.00;101311.53;5018703;28;45333;-72
2023/10/11 01:25:55;;;;;;;;;10.33;9.33;;;;;18.22;100.00;101304.19;5012785;28;45583;-72
2023/10/11 01:28:21;;;;;;;;;14.33;10.33;;;;;18.23;100.00;101305.00;5027402;28;45362;-72
2023/10/11 01:30:47;;;;;;;;;12.33;12.00;;;;;18.18;100.00;101303.81;5026112;28;45786;-72
2023/10/11 01:33:16;;;;;;;;;14.33;10.67;;;;;18.15;100.00;101292.38;5022289;28;45720;-73
2023/10/11 01:35:42;;;;;;;;;13.00;11.33;;;;;18.12;100.00;101296.47;5025304;28;45657;-74
2023/10/11 01:38:08;;;;;;;;;13.67;10.67;;;;;18.03;100.00;101274.91;5021588;28;46300;-75
2023/10/11 01:40:33;;;;;;;;;11.33;10.67;;;;;18.08;100.00;101281.38;5022272;28;45502;-72
2023/10/11 01:43:00;;;;;;;;;9.67;8.33;;;;;18.07;100.00;101276.94;5014833;28;45681;-71
2023/10/11 01:45:25;;;;;;;;;10.33;10.33;;;;;18.01;100.00;101264.06;5017718;28;45658;-72
2023/10/11 01:47:51;;;;;;;;;13.33;11.33;;;;;18.05;100.00;101262.44;5020753;28;45535;-73
2023/10/11 01:50:19;;;;;;;;;12.00;10.33;;;;;17.96;100.00;101253.69;5018338;28;45483;-73
2023/10/11 01:52:48;;;;;;;;;10.67;9.00;;;;;18.01;100.00;101264.06;5021363;28;45496;-72
2023/10/11 01:55:15;;;;;;;;;15.00;13.00;;;;;17.98;100.00;101270.94;5018623;28;46408;-73
2023/10/11 01:57:50;;;;;;;;;15.33;13.33;;;;;17.94;100.00;101271.69;5022209;28;45655;-72
2023/10/11 02:00:29;;;;;;;;;16.67;12.00;;;;;17.87;100.00;101266.22;5018456;28;45789;-73
2023/10/11 02:02:57;;;;;;;;;13.67;13.33;;;;;17.78;100.00;101262.13;5019710;28;46653;-73
2023/10/11 02:05:24;;;;;;;;;17.33;11.67;;;;;17.83;100.00;101268.66;5016733;28;46283;-73
2023/10/11 02:07:50;;;;;;;;;18.33;14.00;;;;;17.82;100.00;101253.09;5016696;28;45639;-72
2023/10/11 02:10:26;;;;;;;;;17.00;13.67;;;;;17.81;100.00;101258.88;5017035;28;46249;-72
2023/10/11 02:12:55;;;;;;;;;12.00;10.00;;;;;17.81;100.00;101253.31;5024116;28;45778;-72
2023/10/11 02:15:30;;;;;;;;;17.00;13.33;;;;;17.81;100.00;101259.75;5020587;28;45867;-73
2023/10/11 02:17:57;;;;;;;;;6.33;4.00;;;;;17.81;100.00;101259.75;5026054;28;45522;-72
2023/10/11 02:20:23;;;;;;;;;16.33;13.33;;;;;17.80;100.00;101255.28;5015276;28;45520;-73
2023/10/11 02:22:56;;;;;;;;;13.33;10.00;;;;;17.77;100.00;101252.97;5020805;28;45580;-72
2023/10/11 02:25:25;;;;;;;;;13.67;9.67;;;;;17.77;100.00;101246.56;5022677;28;45750;-73
2023/10/11 02:27:55;;;;;;;;;11.33;11.00;;;;;17.74;100.00;101249.84;5016361;28;45627;-73
2023/10/11 02:30:25;;;;;;;;;13.67;9.33;;;;;17.75;100.00;101246.81;5023787;28;46474;-73
2023/10/11 02:32:53;;;;;;;;;14.33;11.00;;;;;17.74;100.00;101247.06;5017370;28;45275;-74
2023/10/11 02:35:19;;;;;;;;;9.33;9.00;;;;;17.71;100.00;101242.88;5023782;28;45515;-73
2023/10/11 02:37:47;;;;;;;;;13.00;9.67;;;;;17.73;100.00;101245.41;5020836;28;45511;-72
2023/10/11 02:40:16;;;;;;;;;13.00;11.67;;;;;17.58;100.00;101221.78;5022325;28;45520;-73
2023/10/11 02:42:46;;;;;;;;;11.67;8.67;;;;;17.69;100.00;101252.50;5018088;28;45604;-72
2023/10/11 02:45:13;;;;;;;;;12.33;11.33;;;;;17.67;100.00;101260.25;5019258;28;46385;-73
2023/10/11 02:47:41;;;;;;;;;15.33;12.00;;;;;17.65;100.00;101249.41;5016208;28;45311;-72
2023/10/11 02:50:07;;;;;;;;;17.33;11.67;;;;;17.65;100.00;101252.16;5019304;28;45810;-73
2023/10/11 02:52:39;;;;;;;;;13.00;11.00;;;;;17.63;100.00;101252.41;5021847;28;45440;-73
2023/10/11 02:55:21;;;;;;;;;18.33;11.00;;;;;17.61;100.00;101250.97;5018908;28;46310;-73
2023/10/11 02:57:57;;;;;;;;;14.33;12.00;;;;;17.58;100.00;101252.28;5019058;28;45871;-72
2023/10/11 03:00:22;;;;;;;;;12.67;11.67;;;;;17.58;100.00;101243.13;5020179;28;45357;-73
2023/10/11 03:02:54;;;;;;;;;14.67;11.67;;;;;17.56;100.00;101246.16;5025209;28;45489;-73
2023/10/11 03:05:20;;;;;;;;;14.00;11.67;;;;;17.42;100.00;101214.22;5030575;28;46198;-74
2023/10/11 03:07:46;;;;;;;;;12.00;10.00;;;;;17.54;100.00;101236.38;5016250;28;46010;-73
2023/10/11 03:10:13;;;;;;;;;19.67;17.00;;;;;17.54;100.00;101248.31;5027427;28;45499;-71
2023/10/11 03:12:39;;;;;;;;;15.33;13.00;;;;;17.53;100.00;101249.41;5024037;28;45458;-72
2023/10/11 03:15:09;;;;;;;;;19.00;15.33;;;;;17.50;100.00;101246.25;5017214;28;46045;-76
2023/10/11 03:17:41;;;;;;;;;18.67;11.67;;;;;17.47;100.00;101242.06;5021222;28;45424;-74
2023/10/11 03:20:08;;;;;;;;;20.33;15.33;;;;;17.42;100.00;101234.44;5023520;28;45798;-71
2023/10/11 03:22:35;;;;;;;;;14.00;13.00;;;;;17.41;100.00;101243.00;5020206;28;46146;-72
2023/10/11 03:25:07;;;;;;;;;16.67;16.33;;;;;17.38;100.00;101240.72;5030783;28;47421;-72
2023/10/11 03:27:45;;;;;;;;;18.67;16.67;;;;;17.26;100.00;101226.88;5023883;28;45632;-72
2023/10/11 03:30:11;;;;;;;;;18.67;15.00;;;;;17.27;100.00;101229.41;5028994;28;45304;-72
2023/10/11 03:32:38;;;;;;;;;21.33;15.67;;;;;17.23;100.00;101230.13;5022449;28;45408;-72
2023/10/11 03:35:04;;;;;;;;;15.33;14.33;;;;;17.16;100.00;101221.94;5034641;28;46474;-72
2023/10/11 03:37:29;;;;;;;;;17.67;16.67;;;;;17.16;100.00;101229.44;5021579;28;45441;-75
2023/10/11 03:39:58;;;;;;;;;27.67;21.33;;;;;17.10;100.00;101223.75;5001900;28;45764;-72
2023/10/11 03:42:50;;;;;;;;;19.67;15.67;;;;;17.10;100.00;101220.97;5016835;28;45501;-72
2023/10/11 03:45:15;;;;;;;;;17.33;16.33;;;;;17.08;100.00;101227.84;5008528;28;45450;-72
2023/10/11 03:47:40;;;;;;;;;19.67;15.67;;;;;17.06;100.00;101224.47;5018881;28;45575;-73
2023/10/11 03:50:07;;;;;;;;;23.00;21.00;;;;;17.02;100.00;101226.03;5013942;28;45523;-73
2023/10/11 03:52:32;;;;;;;;;19.33;19.00;;;;;16.93;100.00;101220.88;5033857;28;46690;-73
2023/10/11 03:55:09;;;;;;;;;18.67;17.33;;;;;16.91;100.00;101222.19;5016253;28;45412;-72
2023/10/11 03:57:37;;;;;;;;;14.33;13.00;;;;;16.89;100.00;101216.88;5027389;28;45540;-74
2023/10/11 04:00:25;;;;;;;;;16.67;15.33;;;;;16.89;100.00;101208.56;5016900;28;45267;-71
2023/10/11 04:03:14;;;;;;;;;16.00;14.67;;;;;16.90;100.00;101215.81;5011947;28;45457;-72
2023/10/11 04:05:40;;;;;;;;;12.33;12.33;;;;;16.92;100.00;101210.84;5020803;28;46474;-73
2023/10/11 04:08:08;;;;;;;;;10.00;10.00;;;;;16.99;100.00;101207.97;5033858;28;45685;-72
2023/10/11 04:10:39;;;;;;;;;12.67;11.00;;;;;17.05;100.00;101207.00;5013528;28;45397;-75
2023/10/11 04:13:09;;;;;;;;;13.67;8.67;;;;;17.13;100.00;101214.13;5014486;28;45440;-74
2023/10/11 04:15:35;;;;;;;;;14.33;10.33;;;;;17.17;100.00;101203.38;5013804;28;45361;-73
2023/10/11 04:18:14;;;;;;;;;11.00;8.67;;;;;17.19;100.00;101206.78;5022977;28;45708;-72
2023/10/11 04:20:40;;;;;;;;;11.33;10.67;;;;;17.21;100.00;101210.13;5015944;28;45608;-72
2023/10/11 04:23:14;;;;;;;;;12.33;10.67;;;;;17.19;100.00;101201.22;5023527;28;45416;-71
2023/10/11 04:25:43;;;;;;;;;7.67;7.33;;;;;17.18;100.00;101207.84;5028658;28;45910;-73
2023/10/11 04:28:12;;;;;;;;;13.33;10.33;;;;;17.15;100.00;101206.41;5022948;28;45388;-74
2023/10/11 04:30:41;;;;;;;;;14.00;10.33;;;;;17.10;100.00;101218.22;5017819;28;45510;-73
2023/10/11 04:33:22;;;;;;;;;22.00;16.67;;;;;17.10;100.00;101220.16;5019912;28;45559;-74
2023/10/11 04:36:02;;;;;;;;;18.00;16.33;;;;;17.06;100.00;101218.94;5016219;28;45565;-72
2023/10/11 04:38:30;;;;;;;;;34.67;27.00;;;;;17.01;100.00;101221.59;5015138;28;45524;-72
2023/10/11 04:41:02;;;;;;;;;21.00;15.67;;;;;16.92;100.00;101210.84;5019238;28;45627;-74
2023/10/11 04:43:29;;;;;;;;;21.33;19.00;;;;;16.87;100.00;101213.50;5018539;28;45405;-73
2023/10/11 04:45:59;;;;;;;;;15.67;15.00;;;;;16.83;100.00;101220.56;5018098;28;46257;-73
2023/10/11 04:48:30;;;;;;;;;13.67;9.33;;;;;16.81;100.00;101227.44;5023665;28;45459;-73
2023/10/11 04:51:07;;;;;;;;;16.00;10.33;;;;;16.80;100.00;101225.75;5019179;28;45343;-72
2023/10/11 04:53:35;;;;;;;;;13.00;10.33;;;;;16.80;100.00;101231.31;5017712;28;45837;-73
2023/10/11 04:56:09;;;;;;;;;22.00;16.33;;;;;16.65;100.00;101217.91;5013474;28;45931;-71
2023/10/11 04:58:49;;;;;;;;;20.33;13.67;;;;;16.78;100.00;101250.91;5018434;28;45662;-73
2023/10/11 05:01:22;;;;;;;;;19.33;18.33;;;;;16.67;100.00;101229.59;5024107;28;45702;-74
2023/10/11 05:03:59;;;;;;;;;13.33;13.33;;;;;16.70;100.00;101246.56;5016567;28;45355;-75
2023/10/11 05:06:39;;;;;;;;;17.33;14.00;;;;;16.67;100.00;101241.50;5010965;28;46200;-73
2023/10/11 05:09:29;;;;;;;;;22.33;19.67;;;;;16.63;100.00;101229.22;5011020;28;45399;-72
2023/10/11 05:11:58;;;;;;;;;26.00;19.67;;;;;16.58;100.00;101223.53;5004674;28;45352;-72
2023/10/11 05:14:30;;;;;;;;;19.67;18.00;;;;;16.52;100.00;101213.41;5014029;28;45396;-73
2023/10/11 05:19:47;;;;;;;;;36.33;30.33;;;;;16.46;100.00;101230.97;5027454;28;45460;-74
2023/10/11 05:27:39;;;;;;;;;26.33;21.00;;;;;16.32;100.00;101235.88;5034875;28;45362;-74
2023/10/11 05:32:49;;;;;;;;;24.33;20.00;;;;;16.29;100.00;101237.19;5027416;28;45755;-75
2023/10/11 05:51:39;;;;;;;;;38.33;29.67;;;;;16.11;100.00;101239.97;5005782;28;45357;-73
2023/10/11 05:54:11;;;;;;;;;20.00;17.67;;;;;16.09;100.00;101244.91;5008671;28;45545;-75
2023/10/11 05:56:41;;;;;;;;;20.00;14.67;;;;;16.09;100.00;101240.22;5022986;28;45420;-72
2023/10/11 05:59:10;;;;;;;;;26.00;18.67;;;;;16.12;100.00;101248.03;5027958;28;45591;-71
2023/10/11 06:01:37;;;;;;;;;18.00;17.00;;;;;16.13;100.00;101249.75;5009461;28;45590;-72
2023/10/11 06:04:07;;;;;;;;;20.00;18.00;;;;;16.15;100.00;101258.69;5009297;28;45507;-72
2023/10/11 06:06:42;;;;;;;;;20.33;18.00;;;;;16.33;100.00;101266.09;5013609;28;46042;-73
2023/10/11 06:09:17;;;;;;;;;23.33;20.00;;;;;16.44;100.00;101277.41;5005957;28;46138;-72
2023/10/11 06:11:47;;;;;;;;;20.67;16.00;;;;;16.43;100.00;101276.59;5028070;28;45973;-74
2023/10/11 06:14:17;;;;;;;;;24.67;20.00;;;;;16.42;100.00;101263.81;5005358;28;45712;-72
2023/10/11 06:16:49;;;;;;;;;23.67;21.00;;;;;16.44;100.00;101277.41;5011017;28;46226;-73
2023/10/11 06:19:17;;;;;;;;;18.33;15.67;;;;;16.41;100.00;101279.59;5012185;28;46432;-72
2023/10/11 06:21:56;;;;;;;;;19.00;17.00;;;;;16.47;100.00;101276.97;5026287;28;45469;-72
2023/10/11 06:24:35;;;;;;;;;15.33;14.33;;;;;16.52;100.00;101268.78;5003346;28;45760;-73
2023/10/11 06:29:53;;;;;;;;;18.33;14.67;;;;;16.67;100.00;101274.72;5014025;28;45688;-72
2023/10/11 06:32:19;;;;;;;;;21.67;19.00;;;;;16.77;100.00;101272.22;5011701;28;45683;-73
2023/10/11 06:34:47;;;;;;;;;24.00;21.00;;;;;16.98;100.00;101272.78;5000651;28;45584;-70
2023/10/11 06:37:18;;;;;;;;;29.33;23.33;;;;;17.40;100.00;101274.63;4996561;28;46098;-71
2023/10/11 06:42:21;;;;;;;;;23.67;21.67;;;;;17.75;100.00;101282.88;5004034;28;45283;-73
2023/10/11 06:44:57;;;;;;;;;36.67;32.00;;;;;17.77;100.00;101285.41;5025732;28;45503;-73
2023/10/11 06:47:25;;;;;;;;;32.00;29.00;;;;;17.73;100.00;101282.28;5010685;28;46110;-71
2023/10/11 06:49:55;;;;;;;;;32.67;25.33;;;;;17.60;100.00;101260.38;4997459;28;46405;-71
2023/10/11 06:52:26;;;;;;;;;30.33;28.00;;;;;17.69;100.00;101277.47;5006480;28;45829;-74
2023/10/11 06:55:22;;;;;;;;;23.33;22.33;;;;;17.73;100.00;101278.69;5008794;28;45580;-72
2023/10/11 06:57:54;;;;;;;;;25.00;20.67;;;;;17.71;100.00;101270.63;5008409;28;46063;-71
2023/10/11 07:00:23;;;;;;;;;19.67;16.33;;;;;17.83;100.00;101285.28;5006106;28;46144;-74
2023/10/11 07:05:48;;;;;;;;;24.67;18.33;;;;;17.92;100.00;101273.84;5016027;28;45867;-72
2023/10/11 07:08:18;;;;;;;;;20.33;17.33;;;;;18.07;100.00;101285.28;5017997;28;45570;-73
2023/10/11 07:10:45;;;;;;;;;21.67;16.00;;;;;18.11;100.00;101282.84;5015483;28;47433;-74
2023/10/11 07:13:15;;;;;;;;;17.00;15.67;;;;;18.15;100.00;101293.19;5009776;28;45766;-72
2023/10/11 07:15:46;;;;;;;;;17.00;16.00;;;;;18.06;100.00;101268.88;5005434;28;45421;-73
2023/10/11 07:18:20;;;;;;;;;12.33;12.33;;;;;18.26;100.00;101285.09;5009836;28;45527;-75
2023/10/11 07:20:49;;;;;;;;;17.00;13.67;;;;;18.33;100.00;101283.00;5014570;28;45806;-76
2023/10/11 07:23:20;;;;;;;;;20.00;13.33;;;;;18.41;100.00;101279.81;4992014;28;45458;-73
2023/10/11 07:28:59;;;;;;;;;16.33;13.00;;;;;18.55;100.00;101291.50;5004971;28;45922;-74
2023/10/11 07:31:32;;;;;;;;;16.33;12.33;;;;;18.62;100.00;101288.53;5007190;28;45503;-76
2023/10/11 07:34:09;;;;;;;;;11.00;11.00;;;;;18.70;100.00;101290.94;5017754;28;45696;-75
2023/10/11 07:36:38;;;;;;;;;8.00;7.67;;;;;18.76;100.00;101286.28;5010668;28;45331;-75
2023/10/11 07:41:51;;;;;;;;;11.00;8.67;;;;;18.95;100.00;101295.28;5008435;28;45694;-75
2023/10/11 07:44:18;;;;;;;;;8.33;8.33;;;;;19.01;100.00;101295.13;4996387;28;45516;-75
2023/10/11 07:46:46;;;;;;;;;7.00;7.00;;;;;19.09;100.00;101295.78;4994174;28;45495;-74
2023/10/11 07:49:22;;;;;;;;;11.33;7.67;;;;;19.17;100.00;101300.94;5008138;28;45416;-73
2023/10/11 07:51:52;;;;;;;;;10.67;9.67;;;;;19.20;100.00;101295.69;5011551;28;46062;-73
2023/10/11 07:54:19;;;;;;;;;8.67;8.00;;;;;19.31;100.00;101307.84;5013566;28;45486;-74
2023/10/11 07:56:46;;;;;;;;;11.00;5.33;;;;;19.38;100.00;101310.44;5000434;28;45569;-74
2023/10/11 07:59:12;;;;;;;;;10.33;9.67;;;;;19.45;100.00;101313.91;5009680;28;45805;-74
2023/10/11 08:01:45;;;;;;;;;12.67;7.67;;;;;19.49;100.00;101298.38;5014836;28;46537;-75
2023/10/11 08:04:17;;;;;;;;;8.33;6.00;;;;;19.49;100.00;101284.47;5013777;28;45656;-72
2023/10/11 08:06:43;;;;;;;;;11.67;6.00;;;;;19.63;100.00;101304.41;5018059;28;45792;-74
2023/10/11 08:09:09;;;;;;;;;8.67;7.33;;;;;19.68;100.00;101295.31;5023010;28;45956;-74
2023/10/11 08:11:56;;;;;;;;;8.67;7.00;;;;;19.73;100.00;101296.22;5016145;28;47210;-73
2023/10/11 08:14:28;;;;;;;;;9.67;7.67;;;;;19.78;100.00;101289.91;5002359;28;45781;-76
2023/10/11 08:16:56;;;;;;;;;8.00;5.33;;;;;19.88;100.00;101295.63;4998097;28;45691;-73
2023/10/11 08:19:24;;;;;;;;;7.33;6.33;;;;;19.91;100.00;101281.19;5000861;28;45754;-74
2023/10/11 08:21:57;;;;;;;;;10.33;6.33;;;;;19.99;100.00;101288.25;5003636;28;45661;-76
2023/10/11 08:24:27;;;;;;;;;6.67;6.67;;;;;20.04;100.00;101271.59;5002679;28;45354;-74
2023/10/11 08:27:08;;;;;;;;;5.67;5.67;;;;;20.18;100.00;101291.53;5016616;28;45965;-77
2023/10/11 08:29:35;;;;;;;;;8.67;8.67;;;;;20.27;100.00;101286.34;5011945;28;45743;-74
2023/10/11 08:32:06;;;;;;;;;6.67;6.67;;;;;20.36;100.00;101286.72;5008226;28;45889;-76
2023/10/11 08:34:31;;;;;;;;;8.33;6.00;;;;;20.35;100.00;101271.13;4995869;28;45747;-76
2023/10/11 08:36:57;;;;;;;;;10.00;7.67;;;;;20.52;100.00;101285.78;5018165;28;45855;-76
2023/10/11 08:39:35;;;;;;;;;9.67;7.00;;;;;20.62;100.00;101282.25;5007088;28;45679;-74
2023/10/11 08:42:09;;;;;;;;;7.67;5.67;;;;;20.77;100.00;101295.53;5001474;28;45838;-76
2023/10/11 08:44:34;;;;;;;;;10.33;6.00;;;;;20.90;100.00;101300.69;5004719;28;45899;-76
2023/10/11 08:47:05;;;;;;;;;6.00;5.00;;;;;21.00;100.00;101294.34;4997248;28;45491;-77
2023/10/11 08:49:41;;;;;;;;;8.67;7.00;;;;;21.16;100.00;101292.53;5022247;28;45794;-76
2023/10/11 08:52:10;;;;;;;;;8.33;6.00;;;;;21.30;100.00;101295.69;5010962;28;45762;-75
2023/10/11 08:54:37;;;;;;;;;6.67;6.67;;;;;21.40;100.00;101290.19;5011553;28;45718;-75
2023/10/11 08:57:03;;;;;;;;;6.00;6.00;;;;;21.48;98.62;101291.63;5007258;28;45615;-78
2023/10/11 08:59:31;;;;;;;;;5.33;4.33;;;;;21.60;96.58;101294.25;5003267;28;46082;-77
2023/10/11 09:02:07;;;;;;;;;4.33;4.33;;;;;21.73;96.65;101292.94;5005503;28;45850;-75
2023/10/11 09:04:35;;;;;;;;;8.67;5.67;;;;;21.89;95.51;101302.22;5013739;28;45887;-76
2023/10/11 09:07:01;;;;;;;;;10.67;5.00;;;;;22.06;94.69;101290.88;5011645;28;45892;-73
2023/10/11 09:09:39;;;;;;;;;4.67;4.33;;;;;22.98;92.02;101290.25;5005470;28;45988;-73
2023/10/11 09:12:23;;;;;;;;;7.00;4.00;;;;;24.39;88.95;101285.75;5005617;28;45464;-72
2023/10/11 09:14:59;;;;;;;;;5.25;4.00;;;;;26.10;79.81;101280.31;5012803;28;45694;-74
2023/10/11 09:17:29;;;;;;;;;5.00;3.75;;;;;27.43;70.51;101280.25;5011973;28;45492;-73
2023/10/11 09:20:02;;;;;;;;;4.25;4.25;;;;;28.79;66.02;101282.75;5005188;28;45585;-74
2023/10/11 09:22:28;;;;;;;;;5.50;4.00;;;;;29.97;62.30;101271.19;5030223;28;45583;-73
2023/10/11 09:25:05;;;;;;;;;4.25;4.00;;;;;31.04;56.50;101268.13;5025974;28;45545;-74
2023/10/11 09:27:48;;;;;;;;;4.00;4.00;;;;;32.14;52.17;101264.72;5011274;28;45825;-72
2023/10/11 09:30:20;;;;;;;;;7.00;6.00;;;;;33.10;47.02;101266.81;5019089;28;45925;-73
2023/10/11 09:32:49;;;;;;;;;5.00;4.00;;;;;33.80;43.63;101262.34;5015789;28;45584;-72
2023/10/11 09:35:28;;;;;;;;;7.00;6.00;;;;;34.32;41.71;101266.47;5015957;28;45778;-71
2023/10/11 09:37:59;;;;;;;;;7.00;4.25;;;;;34.78;38.93;101255.69;5020485;28;45713;-72
2023/10/11 09:40:34;;;;;;;;;2.75;2.75;;;;;35.24;37.19;101267.56;5018938;28;45727;-73
2023/10/11 09:43:01;;;;;;;;;2.00;2.00;;;;;35.72;35.73;101259.00;5025108;28;45853;-71
2023/10/11 09:45:42;;;;;;;;;3.50;3.00;;;;;36.02;34.76;101262.25;5017590;28;45743;-73
2023/10/11 09:48:12;;;;;;;;;5.00;4.00;;;;;36.43;34.09;101264.00;5017626;28;45538;-75
2023/10/11 09:50:41;;;;;;;;;4.00;3.00;;;;;36.56;32.33;101251.25;5020350;28;46265;-71
2023/10/11 09:53:11;;;;;;;;;7.75;5.00;;;;;36.80;32.32;101266.44;5010359;28;45730;-72
2023/10/11 09:55:46;;;;;;;;;7.25;3.50;;;;;36.98;31.75;101261.91;5009018;28;45620;-72
2023/10/11 09:58:48;;;;;;;;;6.00;5.00;;;;;37.10;31.32;101269.50;5010028;28;45923;-76
2023/10/11 10:01:38;;;;;;;;;7.00;5.50;;;;;37.29;29.78;101260.06;5012965;28;45873;-76
2023/10/11 10:04:06;;;;;;;;;4.00;4.00;;;;;37.15;29.54;101245.47;5007987;28;47091;-72
2023/10/11 10:06:32;;;;;;;;;3.00;3.00;;;;;37.00;29.45;101250.91;5009668;28;45757;-74
2023/10/11 10:09:23;;;;;;;;;5.25;4.00;;;;;37.09;30.25;101251.50;5006885;28;45423;-74
2023/10/11 10:12:20;;;;;;;;;8.75;5.75;;;;;37.12;30.16;101235.63;5003802;28;45715;-70
2023/10/11 10:14:50;;;;;;;;;4.25;4.25;;;;;37.26;29.52;101244.50;5000894;28;46465;-72
2023/10/11 10:17:16;;;;;;;;;4.00;3.00;;;;;36.99;29.65;101240.69;5011038;28;45993;-72
2023/10/11 10:19:45;;;;;;;;;5.00;3.75;;;;;36.88;29.68;101237.63;5013691;28;45483;-70
2023/10/11 10:22:15;;;;;;;;;5.00;3.75;;;;;36.69;30.07;101249.03;5009197;28;45579;-72
2023/10/11 10:24:44;;;;;;;;;3.50;3.50;;;;;36.33;29.61;101237.66;5008407;28;46687;-74
2023/10/11 10:27:33;;;;;;;;;5.00;3.50;;;;;36.09;29.83;101238.72;5006904;28;45492;-74
2023/10/11 10:30:05;;;;;;;;;4.00;4.00;;;;;35.99;30.80;101233.59;5012826;28;46003;-74
2023/10/11 10:32:32;;;;;;;;;5.25;5.25;;;;;35.70;30.87;101239.41;5003113;28;45637;-73
2023/10/11 10:35:18;;;;;;;;;6.00;4.75;;;;;35.44;31.30;101230.63;5011412;28;47083;-75
2023/10/11 10:37:50;;;;;;;;;7.00;6.00;;;;;35.14;31.80;101234.69;5009227;28;45742;-73
2023/10/11 10:40:26;;;;;;;;;4.75;4.75;;;;;34.83;32.22;101235.44;5007407;28;45369;-75
2023/10/11 10:43:08;;;;;;;;;5.25;3.00;;;;;34.37;32.69;101232.03;5012690;28;45526;-74
2023/10/11 10:45:34;;;;;;;;;6.00;4.75;;;;;34.15;33.03;101231.38;5007642;28;46750;-75
2023/10/11 10:48:18;;;;;;;;;6.00;6.00;;;;;33.65;33.51;101221.19;5009948;28;45824;-74
2023/10/11 10:50:52;;;;;;;;;6.00;5.00;;;;;33.07;34.50;101222.00;5025776;28;45864;-74
2023/10/11 10:53:18;;;;;;;;;6.00;5.00;;;;;32.69;35.65;101226.75;5008760;28;45756;-74
2023/10/11 10:55:45;;;;;;;;;6.50;4.00;;;;;32.36;36.14;101218.16;5013380;28;47332;-73
2023/10/11 10:58:18;;;;;;;;;5.75;4.50;;;;;31.96;37.43;101227.09;5010960;28;45390;-73
2023/10/11 11:00:44;;;;;;;;;5.00;3.50;;;;;31.68;37.82;101228.41;5026367;28;45765;-74
2023/10/11 11:03:23;;;;;;;;;5.00;5.00;;;;;31.27;38.55;101218.53;5029084;28;45487;-73
2023/10/11 11:05:56;;;;;;;;;6.25;5.00;;;;;30.84;39.21;101212.97;5005312;28;46490;-72
2023/10/11 11:08:27;;;;;;;;;3.50;3.50;;;;;30.67;40.43;101220.31;5019799;28;45692;-72
2023/10/11 11:11:27;;;;;;;;;5.25;5.25;;;;;30.25;41.34;101215.13;5010846;28;45960;-73
2023/10/11 11:13:54;;;;;;;;;8.50;6.50;;;;;29.97;42.30;101211.78;5014147;28;45975;-74
2023/10/11 11:16:29;;;;;;;;;5.50;5.50;;;;;29.69;43.12;101217.66;5015990;28;46632;-74
2023/10/11 11:19:00;;;;;;;;;7.25;6.00;;;;;29.50;44.12;101209.44;5020933;28;45858;-73
2023/10/11 11:21:29;;;;;;;;;7.50;6.00;;;;;29.15;44.68;101208.44;5012691;28;45631;-73
2023/10/11 11:24:14;;;;;;;;;5.00;4.50;;;;;28.85;45.34;101205.28;5023467;28;45716;-73
2023/10/11 11:26:43;;;;;;;;;7.50;5.00;;;;;28.62;46.28;101208.06;5011714;28;46203;-71
2023/10/11 11:29:11;;;;;;;;;8.00;6.00;;;;;28.55;47.25;101196.41;5013146;28;45613;-72
2023/10/11 11:31:53;;;;;;;;;6.00;6.00;;;;;28.35;46.99;101204.19;5003309;28;45718;-72
2023/10/11 11:34:37;;;;;;;;;7.75;6.00;;;;;28.35;47.59;101204.19;5012083;28;45334;-72
2023/10/11 11:37:06;;;;;;;;;8.00;5.75;;;;;28.16;48.14;101195.91;5011844;28;46292;-71
2023/10/11 11:39:42;;;;;;;;;6.00;4.00;;;;;27.97;48.14;101196.03;5012704;28;45391;-73
2023/10/11 11:42:19;;;;;;;;;4.00;4.00;;;;;27.86;48.98;101177.66;5011639;28;45808;-72
2023/10/11 11:44:46;;;;;;;;;5.50;5.50;;;;;27.81;49.28;101169.31;5013116;28;45595;-71
2023/10/11 11:47:13;;;;;;;;;8.00;5.00;;;;;27.72;49.91;101155.13;4996690;28;47032;-73
2023/10/11 11:49:38;;;;;;;;;6.75;6.25;;;;;27.67;50.42;101155.25;5013733;28;45673;-72
2023/10/11 11:52:04;;;;;;;;;6.25;4.75;;;;;27.60;49.90;101157.66;5013873;28;45549;-72
2023/10/11 11:54:29;;;;;;;;;7.25;5.25;;;;;27.59;50.59;101154.00;5001097;28;47179;-72
2023/10/11 11:56:56;;;;;;;;;8.25;7.00;;;;;27.68;51.47;101153.25;5009446;28;45670;-72
2023/10/11 11:59:23;;;;;;;;;6.00;5.00;;;;;27.69;51.42;101150.13;4999798;28;45754;-71
2023/10/11 12:01:52;;;;;;;;;6.00;5.00;;;;;27.57;51.81;101145.00;5007275;28;45665;-70
2023/10/11 12:04:29;;;;;;;;;7.00;5.25;;;;;27.55;51.93;101136.06;5005527;28;45785;-73
2023/10/11 12:07:02;;;;;;;;;6.75;5.00;;;;;27.60;51.87;101135.94;5012167;28;46120;-74
2023/10/11 12:09:34;;;;;;;;;11.25;6.00;;;;;27.58;52.77;101124.16;5014897;28;45857;-76